Time;durP1;ratioP1;P1;durP2;ratioP2;P2;SDS_P1;SDS_P2;PMS_P1;PMS_P2;Temp;Humidity;BMP_temperature;BMP_pressure;BME280_temperature;BME280_humidity;BME280_pressure;Samples;Min_cycle;Max_cycle;Signal;HPM_P1;HPM_P2
2023/01/31 00:01:36;;;;;;;61.55;29.27;;;;;;;;;;4905970;29;20032;-93
2023/01/31 00:04:03;;;;;;;55.83;29.13;;;;;;;;;;4923218;29;20034;-95
2023/01/31 00:09:47;;;;;;;54.65;26.48;;;;;;;;;;4940811;29;20343;-92
2023/01/31 00:12:13;;;;;;;52.05;26.52;;;;;;;;;;4922796;29;20055;-93
2023/01/31 00:14:39;;;;;;;49.70;24.65;;;;;;;;;;4939849;29;20079;-93
2023/01/31 00:17:05;;;;;;;51.13;24.55;;;;;;;;;;4923122;29;20114;-92
2023/01/31 00:19:31;;;;;;;52.83;26.08;;;;;;;;;;4922814;29;20032;-93
2023/01/31 00:21:58;;;;;;;46.25;24.38;;;;;;;;;;4923100;29;20048;-93
2023/01/31 00:24:24;;;;;;;45.17;22.10;;;;;;;;;;4924286;29;20075;-93
2023/01/31 00:29:35;;;;;;;43.28;21.00;;;;;;;;;;4939916;29;20123;-92
2023/01/31 00:32:02;;;;;;;40.00;19.45;;;;;;;;;;4943124;29;20347;-92
2023/01/31 00:34:29;;;;;;;34.67;18.30;;;;;;;;;;4943119;29;20020;-92
2023/01/31 00:36:55;;;;;;;33.55;18.10;;;;;;;;;;4926336;29;20035;-93
2023/01/31 00:39:21;;;;;;;33.50;17.10;;;;;;;;;;4926228;29;20034;-92
2023/01/31 00:41:47;;;;;;;32.50;15.93;;;;;;;;;;4942921;29;20028;-93
2023/01/31 00:44:13;;;;;;;34.35;16.80;;;;;;;;;;4926366;29;20123;-93
2023/01/31 00:49:27;;;;;;;31.17;16.38;;;;;;;;;;5003404;23;20421;-94
2023/01/31 00:58:15;;;;;;;36.10;18.02;;;;;;;;;;4962568;28;20042;-93
2023/01/31 01:00:41;;;;;;;32.63;16.88;;;;;;;;;;4946145;28;20042;-93
2023/01/31 01:03:07;;;;;;;32.80;17.13;;;;;;;;;;4949299;29;20046;-94
2023/01/31 01:05:33;;;;;;;28.92;15.48;;;;;;;;;;4961255;28;20027;-93
2023/01/31 01:07:59;;;;;;;27.33;14.85;;;;;;;;;;4950353;28;20031;-94
2023/01/31 01:10:25;;;;;;;27.88;16.10;;;;;;;;;;4961923;29;20073;-93
2023/01/31 01:12:52;;;;;;;28.35;15.43;;;;;;;;;;4961825;29;20406;-93
2023/01/31 01:15:18;;;;;;;29.55;15.88;;;;;;;;;;4961622;29;20497;-92
2023/01/31 01:17:44;;;;;;;33.60;17.48;;;;;;;;;;4961734;29;20410;-93
2023/01/31 01:20:10;;;;;;;31.00;16.38;;;;;;;;;;4961492;29;20035;-93
2023/01/31 01:22:37;;;;;;;31.10;16.77;;;;;;;;;;4961624;29;20027;-93
2023/01/31 01:25:03;;;;;;;28.30;15.52;;;;;;;;;;4944875;29;20027;-93
2023/01/31 01:27:30;;;;;;;28.20;15.23;;;;;;;;;;4961653;29;20027;-93
2023/01/31 01:29:57;;;;;;;26.45;15.40;;;;;;;;;;4944712;29;20114;-93
2023/01/31 01:32:23;;;;;;;26.42;14.50;;;;;;;;;;4961363;29;20147;-93
2023/01/31 01:34:49;;;;;;;33.08;16.63;;;;;;;;;;4944361;29;20028;-93
2023/01/31 01:37:19;;;;;;;27.92;14.88;;;;;;;;;;4961414;29;20019;-94
2023/01/31 01:39:54;;;;;;;26.20;14.32;;;;;;;;;;4961411;29;20027;-93
2023/01/31 01:42:21;;;;;;;26.77;14.02;;;;;;;;;;4943925;29;20035;-94
2023/01/31 02:56:34;;;;;;;15.70;8.75;;;;;;;;;;4960091;28;20505;-93
2023/01/31 03:02:04;;;;;;;17.63;10.73;;;;;;;;;;4960209;28;20083;-94
2023/01/31 03:04:31;;;;;;;22.35;11.77;;;;;;;;;;4962073;28;20066;-94
2023/01/31 03:13:29;;;;;;;23.25;11.93;;;;;;;;;;4966955;23;20079;-92
2023/01/31 03:34:22;;;;;;;21.83;12.90;;;;;;;;;;4984325;23;20066;-93
2023/01/31 04:00:43;;;;;;;24.38;13.02;;;;;;;;;;4940449;29;20091;-92
2023/01/31 04:03:16;;;;;;;21.38;11.90;;;;;;;;;;4940833;29;20036;-93
2023/01/31 04:14:54;;;;;;;25.98;12.23;;;;;;;;;;4950595;29;20489;-92
2023/01/31 04:17:20;;;;;;;24.42;13.57;;;;;;;;;;4961685;29;20426;-91
2023/01/31 04:22:33;;;;;;;21.50;12.48;;;;;;;;;;4944422;29;20050;-93
2023/01/31 04:27:43;;;;;;;17.48;10.40;;;;;;;;;;4943748;29;20047;-93
2023/01/31 04:30:10;;;;;;;19.15;10.00;;;;;;;;;;4943221;29;20032;-92
2023/01/31 04:32:36;;;;;;;18.10;9.98;;;;;;;;;;4943319;29;20087;-92
2023/01/31 04:35:02;;;;;;;16.65;9.40;;;;;;;;;;4925735;29;20034;-92
2023/01/31 04:37:28;;;;;;;17.65;9.02;;;;;;;;;;4942620;29;20142;-85
2023/01/31 04:39:55;;;;;;;16.02;9.10;;;;;;;;;;4943135;29;20024;-86
2023/01/31 04:42:22;;;;;;;22.02;10.02;;;;;;;;;;4927318;29;20051;-85
2023/01/31 05:55:06;;;;;;;14.40;8.23;;;;;;;;;;5340469;23;20346;-84
2023/01/31 09:00:10;;;;;;;;;;;;;;;;;;826152;23;21520;-89
2023/01/31 09:02:36;;;;;;;9.18;4.20;;;;;;;;;;4937448;29;19930;-92
2023/01/31 09:05:02;;;;;;;7.50;3.35;;;;;;;;;;4926042;29;20043;-93
2023/01/31 09:07:28;;;;;;;7.65;3.65;;;;;;;;;;4925858;29;20151;-93
2023/01/31 09:09:54;;;;;;;10.50;4.15;;;;;;;;;;4942854;29;20446;-93
2023/01/31 09:12:20;;;;;;;10.13;5.07;;;;;;;;;;4925979;29;20312;-93
2023/01/31 09:14:46;;;;;;;8.63;4.30;;;;;;;;;;4942752;29;20035;-94
2023/01/31 09:17:12;;;;;;;12.68;4.93;;;;;;;;;;4942664;29;20043;-94
2023/01/31 09:19:38;;;;;;;7.90;3.47;;;;;;;;;;4925923;29;20462;-92
2023/01/31 09:22:27;;;;;;;9.15;4.03;;;;;;;;;;4956263;29;20034;-95
2023/01/31 09:33:30;;;;;;;11.95;3.67;;;;;;;;;;5286845;23;20047;-95
2023/01/31 09:35:57;;;;;;;8.18;3.35;;;;;;;;;;4951516;29;20090;-94
2023/01/31 09:38:25;;;;;;;11.43;3.78;;;;;;;;;;4955110;29;20051;-95
2023/01/31 09:41:14;;;;;;;8.13;3.55;;;;;;;;;;4955128;29;20090;-95
2023/01/31 09:43:44;;;;;;;11.90;3.47;;;;;;;;;;4954399;29;20044;-95
2023/01/31 09:57:35;;;;;;;12.57;3.78;;;;;;;;;;4952363;29;20046;-95
2023/01/31 10:00:21;;;;;;;5.83;2.00;;;;;;;;;;4935564;29;20449;-94
2023/01/31 10:06:46;;;;;;;15.10;4.68;;;;;;;;;;4953358;29;20108;-96
2023/01/31 10:09:30;;;;;;;13.63;4.60;;;;;;;;;;4949117;29;20047;-96
2023/01/31 10:12:04;;;;;;;15.80;5.50;;;;;;;;;;4918908;29;20035;-96
2023/01/31 10:14:50;;;;;;;31.27;12.95;;;;;;;;;;4917926;29;20032;-96
2023/01/31 10:17:39;;;;;;;49.17;14.50;;;;;;;;;;4951418;29;20042;-95
2023/01/31 10:20:09;;;;;;;13.10;4.53;;;;;;;;;;4949473;29;20036;-96
2023/01/31 10:22:43;;;;;;;26.38;10.18;;;;;;;;;;4950354;29;20354;-96
2023/01/31 10:25:35;;;;;;;14.85;5.10;;;;;;;;;;4932584;29;20038;-96
2023/01/31 10:28:06;;;;;;;11.70;4.63;;;;;;;;;;4949969;29;20040;-96
2023/01/31 10:30:56;;;;;;;8.82;4.50;;;;;;;;;;4949514;29;20087;-96
2023/01/31 10:33:41;;;;;;;9.82;4.22;;;;;;;;;;4936088;29;20054;-95
2023/01/31 10:36:32;;;;;;;58.80;17.20;;;;;;;;;;4946809;29;20028;-96
2023/01/31 10:38:58;;;;;;;44.38;14.30;;;;;;;;;;4890204;29;20037;-96
2023/01/31 10:41:34;;;;;;;11.60;4.25;;;;;;;;;;4875685;29;20056;-95
2023/01/31 10:47:11;;;;;;;9.48;3.08;;;;;;;;;;4889012;29;20090;-96
2023/01/31 10:49:38;;;;;;;7.68;3.33;;;;;;;;;;4891580;29;20048;-96
2023/01/31 10:52:12;;;;;;;9.10;2.67;;;;;;;;;;4889003;29;20053;-92
2023/01/31 10:54:58;;;;;;;9.68;2.72;;;;;;;;;;4892059;29;20368;-94
2023/01/31 10:57:24;;;;;;;15.20;6.13;;;;;;;;;;4850557;29;20073;-95
2023/01/31 10:59:51;;;;;;;10.95;6.20;;;;;;;;;;4836390;29;20437;-95
2023/01/31 11:02:39;;;;;;;23.15;14.13;;;;;;;;;;4849709;29;20040;-94
2023/01/31 11:05:13;;;;;;;10.93;4.72;;;;;;;;;;4836406;29;20034;-94
2023/01/31 11:07:42;;;;;;;10.18;4.10;;;;;;;;;;4834185;29;20038;-95
2023/01/31 11:10:30;;;;;;;9.38;3.08;;;;;;;;;;4833940;29;20045;-95
2023/01/31 11:13:08;;;;;;;6.60;2.45;;;;;;;;;;4847716;29;20026;-95
2023/01/31 11:15:38;;;;;;;9.03;3.57;;;;;;;;;;4838898;29;20049;-95
2023/01/31 11:18:06;;;;;;;8.35;3.63;;;;;;;;;;4850033;29;20026;-95
2023/01/31 11:20:43;;;;;;;7.25;3.08;;;;;;;;;;4866112;29;20045;-94
2023/01/31 11:23:42;;;;;;;10.20;3.78;;;;;;;;;;4863891;29;20033;-95
2023/01/31 11:26:27;;;;;;;9.18;2.72;;;;;;;;;;4848340;29;20045;-94
2023/01/31 11:29:03;;;;;;;;;;;;;;;;;;;;;
2023/01/31 11:31:44;;;;;;;;;;;;;;;;;;;;;
2023/01/31 11:34:29;;;;;;;7.55;1.98;;;;;;;;;;4892598;29;20044;-95
2023/01/31 11:37:03;;;;;;;4.15;2.00;;;;;;;;;;4943575;29;20098;-96
2023/01/31 11:39:37;;;;;;;6.55;2.83;;;;;;;;;;4923824;29;20027;-93
2023/01/31 11:42:07;;;;;;;14.43;4.13;;;;;;;;;;4923514;29;20032;-94
2023/01/31 11:44:33;;;;;;;16.13;6.63;;;;;;;;;;4923369;29;20028;-94
2023/01/31 11:47:03;;;;;;;18.60;6.65;;;;;;;;;;4940303;29;20107;-94
2023/01/31 11:49:37;;;;;;;25.55;8.40;;;;;;;;;;4940583;29;20032;-93
2023/01/31 11:52:22;;;;;;;15.60;5.50;;;;;;;;;;4923854;29;20107;-94
2023/01/31 11:54:54;;;;;;;12.85;3.90;;;;;;;;;;4923458;29;20055;-93
2023/01/31 11:57:23;;;;;;;20.05;6.10;;;;;;;;;;4923401;29;20040;-94
2023/01/31 11:59:51;;;;;;;17.17;5.40;;;;;;;;;;4923438;29;20122;-95
2023/01/31 12:02:37;;;;;;;14.50;5.05;;;;;;;;;;4940885;29;20060;-95
2023/01/31 12:05:09;;;;;;;13.68;5.40;;;;;;;;;;4940615;29;20024;-94
2023/01/31 12:07:35;;;;;;;;;;;;;;;;;;4940477;29;20035;-95
2023/01/31 12:10:01;;;;;;;14.15;5.53;;;;;;;;;;4955114;29;19969;-94
2023/01/31 12:12:34;;;;;;;15.73;5.97;;;;;;;;;;4923433;29;20024;-94
2023/01/31 12:15:05;;;;;;;9.70;3.60;;;;;;;;;;4923582;29;20047;-93
2023/01/31 12:17:33;;;;;;;14.85;5.50;;;;;;;;;;4923461;29;20039;-95
2023/01/31 12:19:59;;;;;;;17.60;5.78;;;;;;;;;;4924011;29;20024;-93
2023/01/31 12:22:30;;;;;;;20.60;7.25;;;;;;;;;;4923472;29;20024;-93
2023/01/31 12:25:04;;;;;;;10.75;4.40;;;;;;;;;;4939945;29;20055;-95
2023/01/31 12:28:00;;;;;;;15.68;5.20;;;;;;;;;;4943979;29;20068;-94
2023/01/31 12:30:46;;;;;;;9.50;3.58;;;;;;;;;;4926515;29;20418;-93
2023/01/31 12:33:25;;;;;;;10.75;3.20;;;;;;;;;;4943257;29;20039;-94
2023/01/31 12:35:51;;;;;;;9.70;2.70;;;;;;;;;;4926532;29;20562;-94
2023/01/31 12:38:23;;;;;;;7.32;2.92;;;;;;;;;;4943409;29;20031;-94
2023/01/31 12:41:01;;;;;;;8.00;1.93;;;;;;;;;;4943879;29;20023;-93
2023/01/31 12:43:35;;;;;;;20.73;7.75;;;;;;;;;;4926812;29;20266;-94
2023/01/31 12:46:14;;;;;;;81.93;28.35;;;;;;;;;;4943369;29;20032;-95
2023/01/31 12:48:40;;;;;;;34.53;14.60;;;;;;;;;;4943471;29;20033;-94
2023/01/31 12:51:38;;;;;;;17.35;7.43;;;;;;;;;;4926348;29;20067;-95
2023/01/31 12:54:04;;;;;;;10.13;5.57;;;;;;;;;;4903486;29;20096;-93
2023/01/31 12:56:31;;;;;;;11.57;4.85;;;;;;;;;;4903540;29;20048;-94
2023/01/31 12:59:15;;;;;;;14.98;6.90;;;;;;;;;;4903525;29;20040;-94
2023/01/31 13:01:41;;;;;;;9.30;5.25;;;;;;;;;;4903314;29;20431;-95
2023/01/31 13:04:26;;;;;;;8.65;5.05;;;;;;;;;;4903207;29;20036;-94
2023/01/31 13:06:58;;;;;;;12.88;6.15;;;;;;;;;;4903464;29;20044;-95
2023/01/31 13:09:27;;;;;;;8.20;4.25;;;;;;;;;;4903307;29;20028;-95
2023/01/31 13:12:00;;;;;;;9.18;4.18;;;;;;;;;;4903339;29;20037;-94
2023/01/31 13:14:29;;;;;;;9.38;3.90;;;;;;;;;;4903252;29;20035;-93
2023/01/31 13:16:58;;;;;;;13.40;5.55;;;;;;;;;;4903300;29;20359;-94
2023/01/31 13:19:43;;;;;;;14.27;5.05;;;;;;;;;;4903519;29;20079;-94
2023/01/31 13:22:20;;;;;;;11.20;4.07;;;;;;;;;;4903068;29;20025;-94
2023/01/31 13:24:51;;;;;;;11.88;4.55;;;;;;;;;;4903337;29;20024;-95
2023/01/31 13:27:18;;;;;;;16.83;5.32;;;;;;;;;;4885575;29;20053;-93
2023/01/31 13:30:03;;;;;;;10.25;4.05;;;;;;;;;;4914226;29;20044;-83
2023/01/31 13:32:37;;;;;;;6.80;2.88;;;;;;;;;;4942098;29;20043;-83
2023/01/31 13:35:18;;;;;;;10.50;3.72;;;;;;;;;;4924820;29;20059;-81
2023/01/31 13:37:46;;;;;;;5.28;2.15;;;;;;;;;;4941342;29;20039;-88
2023/01/31 13:40:23;;;;;;;9.05;2.95;;;;;;;;;;4937022;29;20028;-91
2023/01/31 13:42:49;;;;;;;6.13;2.15;;;;;;;;;;4923378;29;20307;-90
2023/01/31 13:45:36;;;;;;;6.25;2.30;;;;;;;;;;4906226;29;20319;-91
2023/01/31 13:48:08;;;;;;;8.02;3.03;;;;;;;;;;4922771;29;20032;-91
2023/01/31 13:50:40;;;;;;;6.97;2.60;;;;;;;;;;4923092;29;20111;-90
2023/01/31 13:53:12;;;;;;;9.32;4.10;;;;;;;;;;4905825;29;20025;-90
2023/01/31 13:55:40;;;;;;;6.30;3.15;;;;;;;;;;4906410;29;20103;-88
2023/01/31 13:58:35;;;;;;;10.07;4.10;;;;;;;;;;4906331;29;20028;-89
2023/01/31 14:01:06;;;;;;;5.57;1.63;;;;;;;;;;4865262;29;20038;-90
2023/01/31 14:03:52;;;;;;;6.22;2.42;;;;;;;;;;4864726;29;20106;-90
2023/01/31 14:06:18;;;;;;;10.30;3.92;;;;;;;;;;4865223;29;20068;-90
2023/01/31 14:08:50;;;;;;;6.55;1.98;;;;;;;;;;4864828;29;20106;-89
2023/01/31 14:11:16;;;;;;;9.73;4.38;;;;;;;;;;4865093;29;20436;-91
2023/01/31 14:13:43;;;;;;;7.63;2.40;;;;;;;;;;4865006;29;20033;-91
2023/01/31 14:16:28;;;;;;;4.95;2.20;;;;;;;;;;4864744;29;20042;-91
2023/01/31 14:18:54;;;;;;;7.32;3.38;;;;;;;;;;4864802;29;20173;-91
2023/01/31 14:21:29;;;;;;;5.43;2.22;;;;;;;;;;4864952;29;20039;-90
2023/01/31 14:23:56;;;;;;;8.18;3.15;;;;;;;;;;4864773;29;20042;-89
2023/01/31 14:26:48;;;;;;;7.07;2.90;;;;;;;;;;4864674;29;20328;-91
2023/01/31 14:29:14;;;;;;;7.57;2.42;;;;;;;;;;4863082;29;20041;-90
2023/01/31 14:31:42;;;;;;;7.03;1.88;;;;;;;;;;4864743;29;20045;-90
2023/01/31 14:34:15;;;;;;;10.40;3.92;;;;;;;;;;4864516;29;20480;-91
2023/01/31 14:36:47;;;;;;;8.10;2.40;;;;;;;;;;4875353;29;20052;-90
2023/01/31 14:39:15;;;;;;;5.82;3.03;;;;;;;;;;4905378;29;20028;-91
2023/01/31 14:41:41;;;;;;;7.10;4.03;;;;;;;;;;4922259;29;20036;-90
2023/01/31 14:44:16;;;;;;;7.63;4.13;;;;;;;;;;4922198;29;20051;-90
2023/01/31 14:46:43;;;;;;;7.93;2.95;;;;;;;;;;4905149;29;20028;-91
2023/01/31 14:49:21;;;;;;;5.60;2.08;;;;;;;;;;4921390;29;20032;-90
2023/01/31 14:52:12;;;;;;;10.05;4.13;;;;;;;;;;4905174;29;20060;-89
2023/01/31 14:54:41;;;;;;;10.40;4.90;;;;;;;;;;4921901;29;20075;-90
2023/01/31 14:57:19;;;;;;;40.42;18.50;;;;;;;;;;4921555;29;20020;-90
2023/01/31 14:59:45;;;;;;;24.33;11.02;;;;;;;;;;4904767;29;20103;-89
2023/01/31 15:02:30;;;;;;;13.40;5.78;;;;;;;;;;4904867;29;20338;-89
2023/01/31 15:05:11;;;;;;;19.25;8.98;;;;;;;;;;4921931;29;20032;-89
2023/01/31 15:07:56;;;;;;;9.07;4.40;;;;;;;;;;4921737;29;20028;-89
2023/01/31 15:10:41;;;;;;;34.85;17.73;;;;;;;;;;4921658;29;20020;-89
2023/01/31 15:13:27;;;;;;;16.50;8.25;;;;;;;;;;4905159;29;20403;-90
2023/01/31 15:15:53;;;;;;;14.50;6.15;;;;;;;;;;4904696;29;20040;-90
2023/01/31 15:18:23;;;;;;;16.75;7.50;;;;;;;;;;4905249;29;20032;-90
2023/01/31 15:20:57;;;;;;;21.02;8.45;;;;;;;;;;4921797;29;20052;-89
2023/01/31 15:23:25;;;;;;;14.18;6.80;;;;;;;;;;4904770;29;20115;-91
2023/01/31 15:25:52;;;;;;;16.17;7.38;;;;;;;;;;4921665;29;20311;-89
2023/01/31 15:28:22;;;;;;;40.47;15.93;;;;;;;;;;4904895;29;20040;-90
2023/01/31 15:30:48;;;;;;;182.82;61.78;;;;;;;;;;4921166;29;20035;-91
2023/01/31 15:33:25;;;;;;;112.13;48.75;;;;;;;;;;4921205;29;20043;-90
2023/01/31 15:36:00;;;;;;;16.83;8.23;;;;;;;;;;4921613;29;20044;-88
2023/01/31 15:38:31;;;;;;;14.60;7.82;;;;;;;;;;4904744;29;20323;-90
2023/01/31 15:41:07;;;;;;;36.13;17.30;;;;;;;;;;4921507;29;20040;-91
2023/01/31 15:43:37;;;;;;;41.42;20.42;;;;;;;;;;4921202;29;20111;-90
2023/01/31 15:46:12;;;;;;;18.40;9.63;;;;;;;;;;4921224;29;20032;-90
2023/01/31 15:48:40;;;;;;;17.38;7.82;;;;;;;;;;4921258;29;20035;-89
2023/01/31 15:51:12;;;;;;;14.32;7.97;;;;;;;;;;4904618;29;20036;-89
2023/01/31 15:53:38;;;;;;;16.50;10.20;;;;;;;;;;4920965;29;20040;-89
2023/01/31 15:56:06;;;;;;;17.08;7.53;;;;;;;;;;4904548;29;20032;-90
2023/01/31 15:58:34;;;;;;;10.35;4.60;;;;;;;;;;4920854;29;20330;-90
2023/01/31 16:01:01;;;;;;;8.70;4.90;;;;;;;;;;4906441;29;20036;-90
2023/01/31 16:03:40;;;;;;;7.30;3.92;;;;;;;;;;4924902;29;20032;-89
2023/01/31 16:06:17;;;;;;;8.32;3.67;;;;;;;;;;4925535;29;20036;-90
2023/01/31 16:08:43;;;;;;;6.60;2.88;;;;;;;;;;4924764;29;20113;-88
2023/01/31 16:11:09;;;;;;;7.15;3.50;;;;;;;;;;4924793;29;20039;-89
2023/01/31 16:13:40;;;;;;;8.45;3.60;;;;;;;;;;4908124;29;20032;-90
2023/01/31 16:16:12;;;;;;;8.88;2.63;;;;;;;;;;4927101;29;20079;-90
2023/01/31 16:18:39;;;;;;;8.88;3.35;;;;;;;;;;4927144;29;20094;-90
2023/01/31 16:21:15;;;;;;;7.18;2.95;;;;;;;;;;4943957;29;20034;-90
2023/01/31 16:23:41;;;;;;;7.70;3.55;;;;;;;;;;4943495;29;20469;-90
2023/01/31 16:26:08;;;;;;;11.68;5.32;;;;;;;;;;4926714;29;20043;-92
2023/01/31 16:28:57;;;;;;;12.25;5.53;;;;;;;;;;4943522;29;20079;-91
2023/01/31 16:31:23;;;;;;;21.40;9.15;;;;;;;;;;4943333;29;20300;-91
2023/01/31 16:34:00;;;;;;;13.90;6.78;;;;;;;;;;4943442;29;20418;-90
2023/01/31 16:36:45;;;;;;;15.68;6.43;;;;;;;;;;4943318;29;20119;-90
2023/01/31 16:39:22;;;;;;;7.15;2.80;;;;;;;;;;4926729;29;20036;-90
2023/01/31 16:41:50;;;;;;;4.78;2.40;;;;;;;;;;4926733;29;20027;-87
2023/01/31 16:44:21;;;;;;;5.82;2.40;;;;;;;;;;4926222;29;20036;-92
2023/01/31 16:46:48;;;;;;;6.28;2.67;;;;;;;;;;4926689;29;20031;-90
2023/01/31 16:49:25;;;;;;;5.18;1.83;;;;;;;;;;4926370;29;20059;-93
2023/01/31 16:52:09;;;;;;;7.90;2.40;;;;;;;;;;4926377;29;20035;-93
2023/01/31 16:54:53;;;;;;;6.03;2.25;;;;;;;;;;4942604;29;20051;-93
2023/01/31 16:57:21;;;;;;;8.90;3.95;;;;;;;;;;4943333;29;20030;-93
2023/01/31 16:59:49;;;;;;;10.18;3.33;;;;;;;;;;4943426;29;20355;-93
2023/01/31 17:02:26;;;;;;;6.82;2.47;;;;;;;;;;4945137;29;20355;-93
2023/01/31 17:04:54;;;;;;;8.75;3.28;;;;;;;;;;4922818;29;20312;-93
2023/01/31 17:07:22;;;;;;;11.60;4.45;;;;;;;;;;4928721;29;20043;-93
2023/01/31 17:09:52;;;;;;;10.57;6.00;;;;;;;;;;4942603;29;20031;-93
2023/01/31 17:12:20;;;;;;;9.43;3.85;;;;;;;;;;4924978;29;20031;-93
2023/01/31 17:14:47;;;;;;;7.05;3.00;;;;;;;;;;4925951;29;20043;-92
2023/01/31 17:17:13;;;;;;;8.18;2.85;;;;;;;;;;4942842;29;20028;-93
2023/01/31 17:19:39;;;;;;;9.25;3.42;;;;;;;;;;4926049;29;20322;-93
2023/01/31 17:22:05;;;;;;;11.52;3.33;;;;;;;;;;4925884;29;20051;-94
2023/01/31 17:24:31;;;;;;;11.20;3.95;;;;;;;;;;4925879;29;20020;-92
2023/01/31 17:26:57;;;;;;;18.83;8.48;;;;;;;;;;4925703;29;20032;-94
2023/01/31 17:29:24;;;;;;;14.85;6.45;;;;;;;;;;4942494;29;20028;-93
2023/01/31 17:31:51;;;;;;;8.60;4.38;;;;;;;;;;4925860;29;20363;-94
2023/01/31 17:34:17;;;;;;;12.48;5.30;;;;;;;;;;4942595;29;20409;-94
2023/01/31 17:36:44;;;;;;;18.52;6.65;;;;;;;;;;4925614;29;20043;-93
2023/01/31 17:39:10;;;;;;;15.02;5.72;;;;;;;;;;4925094;29;20028;-93
2023/01/31 17:41:38;;;;;;;16.77;9.48;;;;;;;;;;4942280;29;20024;-95
2023/01/31 17:44:05;;;;;;;34.17;21.23;;;;;;;;;;4925605;29;20414;-93
2023/01/31 17:46:31;;;;;;;18.42;10.77;;;;;;;;;;4942375;29;20035;-94
2023/01/31 17:48:57;;;;;;;18.60;8.02;;;;;;;;;;4925414;29;20023;-93
2023/01/31 17:51:23;;;;;;;14.93;6.88;;;;;;;;;;4942182;29;20079;-94
2023/01/31 17:53:50;;;;;;;15.77;7.63;;;;;;;;;;4925245;29;20073;-94
2023/01/31 17:56:16;;;;;;;11.00;5.40;;;;;;;;;;4942127;29;20028;-94
2023/01/31 17:58:42;;;;;;;13.23;5.10;;;;;;;;;;4941997;29;20128;-94
2023/01/31 18:01:09;;;;;;;11.05;5.50;;;;;;;;;;4942453;29;20414;-93
2023/01/31 18:03:35;;;;;;;12.90;5.78;;;;;;;;;;4925140;29;20319;-95
2023/01/31 18:06:03;;;;;;;13.13;6.43;;;;;;;;;;4941954;29;20062;-96
2023/01/31 18:08:29;;;;;;;19.60;9.55;;;;;;;;;;4924887;29;20311;-93
2023/01/31 18:10:55;;;;;;;23.88;10.45;;;;;;;;;;4924947;29;20056;-95
2023/01/31 18:13:21;;;;;;;23.50;9.93;;;;;;;;;;4942053;29;20039;-96
2023/01/31 18:15:50;;;;;;;22.98;10.23;;;;;;;;;;4941602;29;20406;-94
2023/01/31 18:18:16;;;;;;;20.90;9.02;;;;;;;;;;4941731;29;20104;-93
2023/01/31 18:20:48;;;;;;;34.38;13.38;;;;;;;;;;4924749;29;20079;-92
2023/01/31 18:23:14;;;;;;;29.77;12.88;;;;;;;;;;4924192;29;20059;-93
2023/01/31 18:25:40;;;;;;;18.15;7.45;;;;;;;;;;4941342;29;20035;-94
2023/01/31 18:28:06;;;;;;;20.65;7.90;;;;;;;;;;4924643;29;20426;-92
2023/01/31 18:30:32;;;;;;;23.42;10.02;;;;;;;;;;4941574;29;20110;-93
2023/01/31 18:32:58;;;;;;;26.00;9.70;;;;;;;;;;4941562;29;20028;-93
2023/01/31 18:35:24;;;;;;;20.90;9.05;;;;;;;;;;4941218;29;20074;-94
2023/01/31 18:37:50;;;;;;;32.97;11.48;;;;;;;;;;4941324;29;20086;-94
2023/01/31 18:40:17;;;;;;;30.98;13.52;;;;;;;;;;4941092;29;20035;-94
2023/01/31 18:42:43;;;;;;;29.40;12.02;;;;;;;;;;4924659;29;20020;-93
2023/01/31 18:45:09;;;;;;;27.30;12.60;;;;;;;;;;4924084;29;20414;-94
2023/01/31 18:47:35;;;;;;;29.58;14.88;;;;;;;;;;4948704;29;20031;-94
2023/01/31 18:50:02;;;;;;;23.80;9.70;;;;;;;;;;4943072;29;20051;-93
2023/01/31 18:52:29;;;;;;;27.38;14.05;;;;;;;;;;4943398;29;20027;-93
2023/01/31 18:54:55;;;;;;;21.38;10.82;;;;;;;;;;4959937;29;20429;-93
2023/01/31 18:57:21;;;;;;;25.50;11.57;;;;;;;;;;4943282;29;20292;-93
2023/01/31 18:59:47;;;;;;;20.48;9.48;;;;;;;;;;4960175;29;20023;-95
2023/01/31 19:02:14;;;;;;;20.88;7.95;;;;;;;;;;4943647;29;20489;-94
2023/01/31 19:04:40;;;;;;;16.90;7.60;;;;;;;;;;4943104;29;20031;-94
2023/01/31 19:07:06;;;;;;;12.25;6.43;;;;;;;;;;4959709;29;20042;-95
2023/01/31 19:09:32;;;;;;;15.55;6.93;;;;;;;;;;4946710;29;20032;-92
2023/01/31 19:11:58;;;;;;;16.15;7.22;;;;;;;;;;4940955;29;20023;-93
2023/01/31 19:14:24;;;;;;;18.10;9.15;;;;;;;;;;4919643;29;20035;-92
2023/01/31 19:16:51;;;;;;;16.13;8.00;;;;;;;;;;4923609;29;20063;-93
2023/01/31 19:19:17;;;;;;;20.52;10.20;;;;;;;;;;4923783;29;20039;-92
2023/01/31 19:21:44;;;;;;;16.75;8.32;;;;;;;;;;4940199;29;20422;-89
2023/01/31 19:27:13;;;;;;;19.42;8.73;;;;;;;;;;4956431;29;20319;-92
2023/01/31 19:29:40;;;;;;;20.60;8.50;;;;;;;;;;4947173;29;20024;-92
2023/01/31 19:32:06;;;;;;;58.55;18.40;;;;;;;;;;4923666;29;20434;-91
2023/01/31 19:34:32;;;;;;;43.55;13.55;;;;;;;;;;4924352;28;20022;-91
2023/01/31 19:40:03;;;;;;;26.13;11.10;;;;;;;;;;4940676;29;20070;-91
2023/01/31 19:42:29;;;;;;;33.22;12.45;;;;;;;;;;4958584;29;20078;-92
2023/01/31 19:44:55;;;;;;;40.20;14.80;;;;;;;;;;4942569;29;20174;-91
2023/01/31 19:47:23;;;;;;;71.15;19.85;;;;;;;;;;4959510;29;20024;-90
2023/01/31 19:49:49;;;;;;;78.30;22.05;;;;;;;;;;4942415;29;20306;-92
2023/01/31 19:52:15;;;;;;;63.83;20.92;;;;;;;;;;4956666;28;20031;-92
2023/01/31 19:54:42;;;;;;;55.22;22.88;;;;;;;;;;4923124;29;20048;-92
2023/01/31 19:57:08;;;;;;;41.45;19.05;;;;;;;;;;4923095;29;20445;-91
2023/01/31 19:59:35;;;;;;;33.65;13.40;;;;;;;;;;4923233;29;20020;-92
2023/01/31 20:02:01;;;;;;;30.48;13.40;;;;;;;;;;4939927;29;20030;-90
2023/01/31 20:04:29;;;;;;;35.28;16.17;;;;;;;;;;4951813;28;20055;-91
2023/01/31 20:06:55;;;;;;;117.30;44.10;;;;;;;;;;4940416;29;20042;-90
2023/01/31 20:09:21;;;;;;;72.28;33.97;;;;;;;;;;4932338;29;20031;-92
2023/01/31 20:11:49;;;;;;;54.10;25.38;;;;;;;;;;4942695;29;20031;-91
2023/01/31 20:14:16;;;;;;;49.42;26.98;;;;;;;;;;4959624;29;20056;-92
2023/01/31 20:16:42;;;;;;;48.28;22.55;;;;;;;;;;4942197;29;20035;-91
2023/01/31 20:19:08;;;;;;;48.50;23.08;;;;;;;;;;4952720;29;20024;-91
2023/01/31 20:21:34;;;;;;;48.70;21.38;;;;;;;;;;4923001;29;20119;-92
2023/01/31 20:24:00;;;;;;;63.60;24.25;;;;;;;;;;4923260;29;20024;-92
2023/01/31 20:26:28;;;;;;;63.38;24.98;;;;;;;;;;4923206;29;20047;-92
2023/01/31 20:28:54;;;;;;;95.57;37.67;;;;;;;;;;4923045;29;20415;-93
2023/01/31 20:31:21;;;;;;;305.92;105.10;;;;;;;;;;4940096;29;20024;-91
2023/01/31 20:33:47;;;;;;;221.82;74.18;;;;;;;;;;4918351;29;20323;-92
2023/01/31 20:36:14;;;;;;;363.52;133.13;;;;;;;;;;4915478;29;20031;-93
2023/01/31 20:38:40;;;;;;;166.13;72.78;;;;;;;;;;4939397;29;20028;-91
2023/01/31 20:41:07;;;;;;;93.10;41.17;;;;;;;;;;4923122;29;20036;-93
2023/01/31 20:43:33;;;;;;;75.65;28.20;;;;;;;;;;4923263;29;20023;-91
2023/01/31 20:46:18;;;;;;;68.25;25.45;;;;;;;;;;4940071;29;20110;-92
2023/01/31 20:48:44;;;;;;;67.18;25.40;;;;;;;;;;4943128;29;20027;-90
2023/01/31 20:51:10;;;;;;;91.65;27.17;;;;;;;;;;4943470;29;20032;-91
2023/01/31 20:53:37;;;;;;;85.18;23.45;;;;;;;;;;4943149;29;20067;-95
2023/01/31 20:56:08;;;;;;;76.57;23.70;;;;;;;;;;4943211;29;20149;-92
2023/01/31 20:58:35;;;;;;;69.32;21.05;;;;;;;;;;4943329;29;20027;-92
2023/01/31 21:01:02;;;;;;;57.30;19.65;;;;;;;;;;4926637;29;20032;-93
2023/01/31 21:03:28;;;;;;;53.70;18.13;;;;;;;;;;4926321;29;20024;-93
2023/01/31 21:05:56;;;;;;;52.75;18.25;;;;;;;;;;4926351;29;20303;-94
2023/01/31 21:08:22;;;;;;;72.03;21.73;;;;;;;;;;4926050;29;20032;-92
2023/01/31 21:10:49;;;;;;;74.40;22.05;;;;;;;;;;4943192;29;20035;-92
2023/01/31 21:13:16;;;;;;;134.00;34.05;;;;;;;;;;4926071;29;20318;-93
2023/01/31 21:15:46;;;;;;;113.65;32.80;;;;;;;;;;4939085;29;20039;-92
2023/01/31 21:18:12;;;;;;;103.95;34.63;;;;;;;;;;4962052;29;20023;-93
2023/01/31 21:20:38;;;;;;;95.10;31.88;;;;;;;;;;4945167;29;20094;-93
2023/01/31 21:23:04;;;;;;;90.25;28.83;;;;;;;;;;4944896;29;20032;-93
2023/01/31 21:25:31;;;;;;;72.80;27.67;;;;;;;;;;4961669;29;20398;-92
2023/01/31 21:27:57;;;;;;;49.88;21.20;;;;;;;;;;4944872;29;20038;-90
2023/01/31 21:30:23;;;;;;;49.97;20.65;;;;;;;;;;4944736;29;20027;-89
2023/01/31 21:32:49;;;;;;;34.05;16.25;;;;;;;;;;4951085;29;20024;-90
2023/01/31 21:35:15;;;;;;;31.00;17.08;;;;;;;;;;4942424;29;20024;-89
2023/01/31 21:37:41;;;;;;;36.28;18.85;;;;;;;;;;4925698;29;20036;-89
2023/01/31 21:40:07;;;;;;;39.53;19.95;;;;;;;;;;4942388;29;20024;-91
2023/01/31 21:42:34;;;;;;;39.08;19.55;;;;;;;;;;4942613;29;20035;-89
2023/01/31 21:45:00;;;;;;;38.35;20.50;;;;;;;;;;4925587;29;20032;-91
2023/01/31 21:47:27;;;;;;;36.03;17.23;;;;;;;;;;4942288;29;20051;-90
2023/01/31 21:49:53;;;;;;;35.60;16.95;;;;;;;;;;4942231;29;20028;-90
2023/01/31 21:52:20;;;;;;;34.90;17.13;;;;;;;;;;4941619;29;20438;-90
2023/01/31 21:54:46;;;;;;;31.08;16.02;;;;;;;;;;4941853;29;20100;-90
2023/01/31 21:57:12;;;;;;;29.92;14.38;;;;;;;;;;4942014;29;20036;-89
2023/01/31 21:59:38;;;;;;;34.47;16.15;;;;;;;;;;4941485;29;20031;-89
2023/01/31 22:02:04;;;;;;;38.00;18.92;;;;;;;;;;4924649;29;20031;-91
2023/01/31 22:04:30;;;;;;;37.55;19.10;;;;;;;;;;4941213;29;20031;-89
2023/01/31 22:06:56;;;;;;;46.25;22.67;;;;;;;;;;4924776;29;20031;-90
2023/01/31 22:09:22;;;;;;;42.28;18.95;;;;;;;;;;4941372;29;20095;-90